sensor_id;sensor_type;location;lat;lon;timestamp;P1;durP1;ratioP1;P2;durP2;ratioP2
74914;SDS011;63475;45.140;-75.616;2023-08-24T00:00:45;4.38;;;2.53;;
74914;SDS011;63475;45.140;-75.616;2023-08-24T00:02:48;4.85;;;1.77;;
74914;SDS011;63475;45.140;-75.616;2023-08-24T00:04:51;3.95;;;1.17;;
74914;SDS011;63475;45.140;-75.616;2023-08-24T00:06:54;8.38;;;2.15;;
74914;SDS011;63475;45.140;-75.616;2023-08-24T00:08:56;4.82;;;3.15;;
74914;SDS011;63475;45.140;-75.616;2023-08-24T00:10:59;4.00;;;1.65;;
74914;SDS011;63475;45.140;-75.616;2023-08-24T00:13:02;4.75;;;2.60;;
74914;SDS011;63475;45.140;-75.616;2023-08-24T00:15:07;5.13;;;2.58;;
74914;SDS011;63475;45.140;-75.616;2023-08-24T00:17:10;5.63;;;2.25;;
74914;SDS011;63475;45.140;-75.616;2023-08-24T00:19:13;6.65;;;3.00;;
74914;SDS011;63475;45.140;-75.616;2023-08-24T00:21:15;5.82;;;2.97;;
74914;SDS011;63475;45.140;-75.616;2023-08-24T00:23:25;5.25;;;3.28;;
74914;SDS011;63475;45.140;-75.616;2023-08-24T00:25:27;5.45;;;2.78;;
74914;SDS011;63475;45.140;-75.616;2023-08-24T00:27:30;5.43;;;3.00;;
74914;SDS011;63475;45.140;-75.616;2023-08-24T00:29:32;6.78;;;2.00;;
74914;SDS011;63475;45.140;-75.616;2023-08-24T00:31:35;6.38;;;2.90;;
74914;SDS011;63475;45.140;-75.616;2023-08-24T00:33:37;9.98;;;3.58;;
74914;SDS011;63475;45.140;-75.616;2023-08-24T00:35:40;10.98;;;6.18;;
74914;SDS011;63475;45.140;-75.616;2023-08-24T00:37:42;20.58;;;10.55;;
74914;SDS011;63475;45.140;-75.616;2023-08-24T00:39:44;17.50;;;9.90;;
74914;SDS011;63475;45.140;-75.616;2023-08-24T00:41:47;13.38;;;7.13;;
74914;SDS011;63475;45.140;-75.616;2023-08-24T00:43:49;7.35;;;3.85;;
74914;SDS011;63475;45.140;-75.616;2023-08-24T00:45:52;11.05;;;4.80;;
74914;SDS011;63475;45.140;-75.616;2023-08-24T00:47:57;10.45;;;4.22;;
74914;SDS011;63475;45.140;-75.616;2023-08-24T00:50:00;8.60;;;4.78;;
74914;SDS011;63475;45.140;-75.616;2023-08-24T00:52:03;7.40;;;3.85;;
74914;SDS011;63475;45.140;-75.616;2023-08-24T00:54:06;7.68;;;3.92;;
74914;SDS011;63475;45.140;-75.616;2023-08-24T00:56:08;7.82;;;4.13;;
74914;SDS011;63475;45.140;-75.616;2023-08-24T00:58:11;6.20;;;3.53;;
74914;SDS011;63475;45.140;-75.616;2023-08-24T01:00:15;7.95;;;4.70;;
74914;SDS011;63475;45.140;-75.616;2023-08-24T01:02:18;6.63;;;3.55;;
74914;SDS011;63475;45.140;-75.616;2023-08-24T01:04:22;5.50;;;3.45;;
74914;SDS011;63475;45.140;-75.616;2023-08-24T01:06:25;6.85;;;3.75;;
74914;SDS011;63475;45.140;-75.616;2023-08-24T01:08:27;7.15;;;3.60;;
74914;SDS011;63475;45.140;-75.616;2023-08-24T01:10:38;5.68;;;2.92;;
74914;SDS011;63475;45.140;-75.616;2023-08-24T01:15:13;5.53;;;2.95;;
74914;SDS011;63475;45.140;-75.616;2023-08-24T01:17:18;6.38;;;2.60;;
74914;SDS011;63475;45.140;-75.616;2023-08-24T01:19:37;7.18;;;3.80;;
74914;SDS011;63475;45.140;-75.616;2023-08-24T01:21:42;5.50;;;2.78;;
74914;SDS011;63475;45.140;-75.616;2023-08-24T01:28:06;7.03;;;2.15;;
74914;SDS011;63475;45.140;-75.616;2023-08-24T01:30:11;5.75;;;2.88;;
74914;SDS011;63475;45.140;-75.616;2023-08-24T01:32:14;5.07;;;2.53;;
74914;SDS011;63475;45.140;-75.616;2023-08-24T01:34:17;5.35;;;2.85;;
74914;SDS011;63475;45.140;-75.616;2023-08-24T01:36:20;5.18;;;3.10;;
74914;SDS011;63475;45.140;-75.616;2023-08-24T01:38:23;6.25;;;1.50;;
74914;SDS011;63475;45.140;-75.616;2023-08-24T01:40:27;6.13;;;3.30;;
74914;SDS011;63475;45.140;-75.616;2023-08-24T01:43:01;7.20;;;3.10;;
74914;SDS011;63475;45.140;-75.616;2023-08-24T01:45:07;6.15;;;3.05;;
74914;SDS011;63475;45.140;-75.616;2023-08-24T01:47:12;6.50;;;3.17;;
74914;SDS011;63475;45.140;-75.616;2023-08-24T01:49:15;4.93;;;2.92;;
74914;SDS011;63475;45.140;-75.616;2023-08-24T01:51:19;6.30;;;1.80;;
74914;SDS011;63475;45.140;-75.616;2023-08-24T01:53:23;6.05;;;3.30;;
74914;SDS011;63475;45.140;-75.616;2023-08-24T01:55:28;5.13;;;2.97;;
74914;SDS011;63475;45.140;-75.616;2023-08-24T01:57:31;5.97;;;3.97;;
74914;SDS011;63475;45.140;-75.616;2023-08-24T01:59:33;5.20;;;3.47;;
74914;SDS011;63475;45.140;-75.616;2023-08-24T02:01:36;5.30;;;2.92;;
74914;SDS011;63475;45.140;-75.616;2023-08-24T02:03:38;5.18;;;1.85;;
74914;SDS011;63475;45.140;-75.616;2023-08-24T02:05:41;6.30;;;2.92;;
74914;SDS011;63475;45.140;-75.616;2023-08-24T02:07:44;5.47;;;1.85;;
74914;SDS011;63475;45.140;-75.616;2023-08-24T02:09:46;5.78;;;2.65;;
74914;SDS011;63475;45.140;-75.616;2023-08-24T02:11:49;4.93;;;3.17;;
74914;SDS011;63475;45.140;-75.616;2023-08-24T02:13:51;6.53;;;2.28;;
74914;SDS011;63475;45.140;-75.616;2023-08-24T02:16:07;8.65;;;3.83;;
74914;SDS011;63475;45.140;-75.616;2023-08-24T02:18:11;6.40;;;3.45;;
74914;SDS011;63475;45.140;-75.616;2023-08-24T02:20:13;7.90;;;3.92;;
74914;SDS011;63475;45.140;-75.616;2023-08-24T02:22:16;7.88;;;3.28;;
74914;SDS011;63475;45.140;-75.616;2023-08-24T02:24:19;5.00;;;1.98;;
74914;SDS011;63475;45.140;-75.616;2023-08-24T02:26:21;5.57;;;2.20;;
74914;SDS011;63475;45.140;-75.616;2023-08-24T02:28:24;8.45;;;3.70;;
74914;SDS011;63475;45.140;-75.616;2023-08-24T02:30:27;5.97;;;2.97;;
74914;SDS011;63475;45.140;-75.616;2023-08-24T02:32:30;5.90;;;3.13;;
74914;SDS011;63475;45.140;-75.616;2023-08-24T02:34:33;5.72;;;2.90;;
74914;SDS011;63475;45.140;-75.616;2023-08-24T02:36:36;6.95;;;2.40;;
74914;SDS011;63475;45.140;-75.616;2023-08-24T02:38:38;6.57;;;2.90;;
74914;SDS011;63475;45.140;-75.616;2023-08-24T02:40:41;8.25;;;4.43;;
74914;SDS011;63475;45.140;-75.616;2023-08-24T02:42:43;7.45;;;2.90;;
74914;SDS011;63475;45.140;-75.616;2023-08-24T02:44:46;7.82;;;3.70;;
74914;SDS011;63475;45.140;-75.616;2023-08-24T02:46:49;7.97;;;4.15;;
74914;SDS011;63475;45.140;-75.616;2023-08-24T02:48:52;6.70;;;3.65;;
74914;SDS011;63475;45.140;-75.616;2023-08-24T02:50:55;6.53;;;2.67;;
74914;SDS011;63475;45.140;-75.616;2023-08-24T02:53:02;7.07;;;2.50;;
74914;SDS011;63475;45.140;-75.616;2023-08-24T02:55:05;9.38;;;3.88;;
74914;SDS011;63475;45.140;-75.616;2023-08-24T02:57:08;6.85;;;2.65;;
74914;SDS011;63475;45.140;-75.616;2023-08-24T02:59:10;7.53;;;3.78;;
74914;SDS011;63475;45.140;-75.616;2023-08-24T03:01:13;7.35;;;2.47;;
74914;SDS011;63475;45.140;-75.616;2023-08-24T03:03:16;5.82;;;2.88;;
74914;SDS011;63475;45.140;-75.616;2023-08-24T03:05:18;8.15;;;1.92;;
74914;SDS011;63475;45.140;-75.616;2023-08-24T03:07:21;6.53;;;2.35;;
74914;SDS011;63475;45.140;-75.616;2023-08-24T03:09:24;6.15;;;2.22;;
74914;SDS011;63475;45.140;-75.616;2023-08-24T03:11:26;5.25;;;1.98;;
74914;SDS011;63475;45.140;-75.616;2023-08-24T03:13:29;6.25;;;1.98;;
74914;SDS011;63475;45.140;-75.616;2023-08-24T03:15:32;5.95;;;2.45;;
74914;SDS011;63475;45.140;-75.616;2023-08-24T03:17:40;7.45;;;2.42;;
74914;SDS011;63475;45.140;-75.616;2023-08-24T03:19:42;5.32;;;1.45;;
74914;SDS011;63475;45.140;-75.616;2023-08-24T03:21:45;5.30;;;1.85;;
74914;SDS011;63475;45.140;-75.616;2023-08-24T03:23:47;5.68;;;1.77;;
74914;SDS011;63475;45.140;-75.616;2023-08-24T03:25:50;6.63;;;4.07;;
74914;SDS011;63475;45.140;-75.616;2023-08-24T03:27:53;4.80;;;2.60;;
74914;SDS011;63475;45.140;-75.616;2023-08-24T03:29:55;5.10;;;1.60;;
74914;SDS011;63475;45.140;-75.616;2023-08-24T03:31:58;4.53;;;1.42;;
74914;SDS011;63475;45.140;-75.616;2023-08-24T03:34:01;4.60;;;1.55;;
74914;SDS011;63475;45.140;-75.616;2023-08-24T03:36:05;5.00;;;2.78;;
74914;SDS011;63475;45.140;-75.616;2023-08-24T03:38:08;6.22;;;3.13;;
74914;SDS011;63475;45.140;-75.616;2023-08-24T03:40:11;5.60;;;2.97;;
74914;SDS011;63475;45.140;-75.616;2023-08-24T03:42:14;5.70;;;3.38;;
74914;SDS011;63475;45.140;-75.616;2023-08-24T03:44:17;5.78;;;2.05;;
74914;SDS011;63475;45.140;-75.616;2023-08-24T03:46:19;8.15;;;2.05;;
74914;SDS011;63475;45.140;-75.616;2023-08-24T03:48:22;5.25;;;1.95;;
74914;SDS011;63475;45.140;-75.616;2023-08-24T03:50:24;7.05;;;3.35;;
74914;SDS011;63475;45.140;-75.616;2023-08-24T03:52:28;5.03;;;1.52;;
74914;SDS011;63475;45.140;-75.616;2023-08-24T03:54:30;4.90;;;1.73;;
74914;SDS011;63475;45.140;-75.616;2023-08-24T03:56:33;4.28;;;1.67;;
74914;SDS011;63475;45.140;-75.616;2023-08-24T03:58:35;5.88;;;2.83;;
74914;SDS011;63475;45.140;-75.616;2023-08-24T04:00:38;5.75;;;3.03;;
74914;SDS011;63475;45.140;-75.616;2023-08-24T04:02:41;5.20;;;2.17;;
74914;SDS011;63475;45.140;-75.616;2023-08-24T04:04:44;5.18;;;1.60;;
74914;SDS011;63475;45.140;-75.616;2023-08-24T04:06:48;5.93;;;2.28;;
74914;SDS011;63475;45.140;-75.616;2023-08-24T04:08:51;5.75;;;3.47;;
74914;SDS011;63475;45.140;-75.616;2023-08-24T04:10:54;5.38;;;2.22;;
74914;SDS011;63475;45.140;-75.616;2023-08-24T04:12:56;5.60;;;1.98;;
74914;SDS011;63475;45.140;-75.616;2023-08-24T04:14:59;6.13;;;1.80;;
74914;SDS011;63475;45.140;-75.616;2023-08-24T04:17:01;6.57;;;1.77;;
74914;SDS011;63475;45.140;-75.616;2023-08-24T04:19:04;6.43;;;1.88;;
74914;SDS011;63475;45.140;-75.616;2023-08-24T04:21:07;4.07;;;1.27;;
74914;SDS011;63475;45.140;-75.616;2023-08-24T04:23:09;7.00;;;3.38;;
74914;SDS011;63475;45.140;-75.616;2023-08-24T04:25:14;6.10;;;1.90;;
74914;SDS011;63475;45.140;-75.616;2023-08-24T04:27:16;6.10;;;2.83;;
74914;SDS011;63475;45.140;-75.616;2023-08-24T04:29:19;6.20;;;3.17;;
74914;SDS011;63475;45.140;-75.616;2023-08-24T04:31:22;7.28;;;2.60;;
74914;SDS011;63475;45.140;-75.616;2023-08-24T04:33:24;4.32;;;1.52;;
74914;SDS011;63475;45.140;-75.616;2023-08-24T04:35:27;10.88;;;3.30;;
74914;SDS011;63475;45.140;-75.616;2023-08-24T04:37:29;6.82;;;2.10;;
74914;SDS011;63475;45.140;-75.616;2023-08-24T04:39:32;6.90;;;2.55;;
74914;SDS011;63475;45.140;-75.616;2023-08-24T04:41:35;5.68;;;1.65;;
74914;SDS011;63475;45.140;-75.616;2023-08-24T04:43:37;7.15;;;1.83;;
74914;SDS011;63475;45.140;-75.616;2023-08-24T04:45:40;5.60;;;2.00;;
74914;SDS011;63475;45.140;-75.616;2023-08-24T04:47:42;6.13;;;2.85;;
74914;SDS011;63475;45.140;-75.616;2023-08-24T04:49:45;7.22;;;1.77;;
74914;SDS011;63475;45.140;-75.616;2023-08-24T04:51:47;7.75;;;3.33;;
74914;SDS011;63475;45.140;-75.616;2023-08-24T04:53:50;4.97;;;1.95;;
74914;SDS011;63475;45.140;-75.616;2023-08-24T04:55:52;6.05;;;2.53;;
74914;SDS011;63475;45.140;-75.616;2023-08-24T04:57:55;6.50;;;1.88;;
74914;SDS011;63475;45.140;-75.616;2023-08-24T04:59:57;7.40;;;2.00;;
74914;SDS011;63475;45.140;-75.616;2023-08-24T05:02:00;5.60;;;1.73;;
74914;SDS011;63475;45.140;-75.616;2023-08-24T05:04:02;5.93;;;2.30;;
74914;SDS011;63475;45.140;-75.616;2023-08-24T05:06:05;5.00;;;3.17;;
74914;SDS011;63475;45.140;-75.616;2023-08-24T05:08:07;6.57;;;2.13;;
74914;SDS011;63475;45.140;-75.616;2023-08-24T05:10:14;6.72;;;3.53;;
74914;SDS011;63475;45.140;-75.616;2023-08-24T05:12:16;8.57;;;3.35;;
74914;SDS011;63475;45.140;-75.616;2023-08-24T05:14:19;5.43;;;1.50;;
74914;SDS011;63475;45.140;-75.616;2023-08-24T05:16:21;7.60;;;1.50;;
74914;SDS011;63475;45.140;-75.616;2023-08-24T05:18:24;6.93;;;2.00;;
74914;SDS011;63475;45.140;-75.616;2023-08-24T05:20:26;5.97;;;2.65;;
74914;SDS011;63475;45.140;-75.616;2023-08-24T05:22:30;5.85;;;2.83;;
74914;SDS011;63475;45.140;-75.616;2023-08-24T05:24:32;6.00;;;2.78;;
74914;SDS011;63475;45.140;-75.616;2023-08-24T05:26:35;6.10;;;2.72;;
74914;SDS011;63475;45.140;-75.616;2023-08-24T05:28:37;5.65;;;2.85;;
74914;SDS011;63475;45.140;-75.616;2023-08-24T05:30:40;5.93;;;3.30;;
74914;SDS011;63475;45.140;-75.616;2023-08-24T05:32:42;6.65;;;3.22;;
74914;SDS011;63475;45.140;-75.616;2023-08-24T05:34:45;7.47;;;1.48;;
74914;SDS011;63475;45.140;-75.616;2023-08-24T05:36:48;4.97;;;2.67;;
74914;SDS011;63475;45.140;-75.616;2023-08-24T05:38:51;9.70;;;3.45;;
74914;SDS011;63475;45.140;-75.616;2023-08-24T05:41:07;4.72;;;1.58;;
74914;SDS011;63475;45.140;-75.616;2023-08-24T05:43:10;6.75;;;3.25;;
74914;SDS011;63475;45.140;-75.616;2023-08-24T05:45:13;5.50;;;1.95;;
74914;SDS011;63475;45.140;-75.616;2023-08-24T05:47:15;5.60;;;2.10;;
74914;SDS011;63475;45.140;-75.616;2023-08-24T05:49:18;6.72;;;2.90;;
74914;SDS011;63475;45.140;-75.616;2023-08-24T05:51:21;5.50;;;3.15;;
74914;SDS011;63475;45.140;-75.616;2023-08-24T05:53:23;6.95;;;3.13;;
74914;SDS011;63475;45.140;-75.616;2023-08-24T05:55:25;6.43;;;1.60;;
74914;SDS011;63475;45.140;-75.616;2023-08-24T05:57:28;6.63;;;1.67;;
74914;SDS011;63475;45.140;-75.616;2023-08-24T05:59:31;5.53;;;1.58;;
74914;SDS011;63475;45.140;-75.616;2023-08-24T06:01:35;5.85;;;2.78;;
74914;SDS011;63475;45.140;-75.616;2023-08-24T06:03:40;4.95;;;1.45;;
74914;SDS011;63475;45.140;-75.616;2023-08-24T06:05:42;5.57;;;1.48;;
74914;SDS011;63475;45.140;-75.616;2023-08-24T06:07:45;4.90;;;3.17;;
74914;SDS011;63475;45.140;-75.616;2023-08-24T06:09:47;4.90;;;1.73;;
74914;SDS011;63475;45.140;-75.616;2023-08-24T06:11:50;4.47;;;1.60;;
74914;SDS011;63475;45.140;-75.616;2023-08-24T06:13:53;9.10;;;3.03;;
74914;SDS011;63475;45.140;-75.616;2023-08-24T06:15:56;5.30;;;2.08;;
74914;SDS011;63475;45.140;-75.616;2023-08-24T06:17:58;6.50;;;3.28;;
74914;SDS011;63475;45.140;-75.616;2023-08-24T06:20:04;4.90;;;1.92;;
74914;SDS011;63475;45.140;-75.616;2023-08-24T06:22:07;6.65;;;2.85;;
74914;SDS011;63475;45.140;-75.616;2023-08-24T06:24:10;7.75;;;3.42;;
74914;SDS011;63475;45.140;-75.616;2023-08-24T06:26:13;5.68;;;1.40;;
74914;SDS011;63475;45.140;-75.616;2023-08-24T06:28:16;6.82;;;3.67;;
74914;SDS011;63475;45.140;-75.616;2023-08-24T06:30:18;3.80;;;1.30;;
74914;SDS011;63475;45.140;-75.616;2023-08-24T06:32:21;7.13;;;2.97;;
74914;SDS011;63475;45.140;-75.616;2023-08-24T06:34:23;9.35;;;1.95;;
74914;SDS011;63475;45.140;-75.616;2023-08-24T06:36:26;6.18;;;3.05;;
74914;SDS011;63475;45.140;-75.616;2023-08-24T06:38:28;5.15;;;2.85;;
74914;SDS011;63475;45.140;-75.616;2023-08-24T06:40:31;6.07;;;2.63;;
74914;SDS011;63475;45.140;-75.616;2023-08-24T06:42:34;5.40;;;2.78;;
74914;SDS011;63475;45.140;-75.616;2023-08-24T06:44:36;5.32;;;3.35;;
74914;SDS011;63475;45.140;-75.616;2023-08-24T06:46:39;6.07;;;2.92;;
74914;SDS011;63475;45.140;-75.616;2023-08-24T06:48:42;7.35;;;3.00;;
74914;SDS011;63475;45.140;-75.616;2023-08-24T06:50:45;7.20;;;3.28;;
74914;SDS011;63475;45.140;-75.616;2023-08-24T06:52:47;6.07;;;2.92;;
74914;SDS011;63475;45.140;-75.616;2023-08-24T06:54:50;6.70;;;1.55;;
74914;SDS011;63475;45.140;-75.616;2023-08-24T06:56:57;6.32;;;2.75;;
74914;SDS011;63475;45.140;-75.616;2023-08-24T06:59:00;5.60;;;1.48;;
74914;SDS011;63475;45.140;-75.616;2023-08-24T07:01:02;4.00;;;1.65;;
74914;SDS011;63475;45.140;-75.616;2023-08-24T07:03:08;4.90;;;2.88;;
74914;SDS011;63475;45.140;-75.616;2023-08-24T07:05:11;7.07;;;3.08;;
74914;SDS011;63475;45.140;-75.616;2023-08-24T07:07:14;4.80;;;2.72;;
74914;SDS011;63475;45.140;-75.616;2023-08-24T07:09:17;5.43;;;2.35;;
74914;SDS011;63475;45.140;-75.616;2023-08-24T07:11:20;4.95;;;1.73;;
74914;SDS011;63475;45.140;-75.616;2023-08-24T07:13:22;5.43;;;2.65;;
74914;SDS011;63475;45.140;-75.616;2023-08-24T07:15:25;6.88;;;3.75;;
74914;SDS011;63475;45.140;-75.616;2023-08-24T07:17:27;4.80;;;1.50;;
74914;SDS011;63475;45.140;-75.616;2023-08-24T07:19:30;4.32;;;1.45;;
74914;SDS011;63475;45.140;-75.616;2023-08-24T07:21:32;8.38;;;1.83;;
74914;SDS011;63475;45.140;-75.616;2023-08-24T07:23:35;5.15;;;1.63;;
74914;SDS011;63475;45.140;-75.616;2023-08-24T07:25:37;5.60;;;1.30;;
74914;SDS011;63475;45.140;-75.616;2023-08-24T07:27:40;5.47;;;1.52;;
74914;SDS011;63475;45.140;-75.616;2023-08-24T07:29:42;8.32;;;3.10;;
74914;SDS011;63475;45.140;-75.616;2023-08-24T07:31:45;5.80;;;2.45;;
74914;SDS011;63475;45.140;-75.616;2023-08-24T07:33:48;6.50;;;1.50;;
74914;SDS011;63475;45.140;-75.616;2023-08-24T07:35:51;6.57;;;1.40;;
74914;SDS011;63475;45.140;-75.616;2023-08-24T07:37:53;5.38;;;1.50;;
74914;SDS011;63475;45.140;-75.616;2023-08-24T07:39:56;6.28;;;2.83;;
74914;SDS011;63475;45.140;-75.616;2023-08-24T07:41:59;5.18;;;1.38;;
74914;SDS011;63475;45.140;-75.616;2023-08-24T07:44:01;4.15;;;1.63;;
74914;SDS011;63475;45.140;-75.616;2023-08-24T07:46:04;4.43;;;1.40;;
74914;SDS011;63475;45.140;-75.616;2023-08-24T07:48:09;5.38;;;1.50;;
74914;SDS011;63475;45.140;-75.616;2023-08-24T07:50:12;5.60;;;1.63;;
74914;SDS011;63475;45.140;-75.616;2023-08-24T07:52:15;5.45;;;1.88;;
74914;SDS011;63475;45.140;-75.616;2023-08-24T07:54:17;5.10;;;2.33;;
74914;SDS011;63475;45.140;-75.616;2023-08-24T07:56:20;4.85;;;1.80;;
74914;SDS011;63475;45.140;-75.616;2023-08-24T07:58:23;5.32;;;2.47;;
74914;SDS011;63475;45.140;-75.616;2023-08-24T08:00:26;5.00;;;2.60;;
74914;SDS011;63475;45.140;-75.616;2023-08-24T08:02:28;5.40;;;3.35;;
74914;SDS011;63475;45.140;-75.616;2023-08-24T08:04:31;4.60;;;1.30;;
74914;SDS011;63475;45.140;-75.616;2023-08-24T08:06:33;4.65;;;1.15;;
74914;SDS011;63475;45.140;-75.616;2023-08-24T08:08:36;4.80;;;1.55;;
74914;SDS011;63475;45.140;-75.616;2023-08-24T08:10:38;8.80;;;1.38;;
74914;SDS011;63475;45.140;-75.616;2023-08-24T08:12:41;4.88;;;2.53;;
74914;SDS011;63475;45.140;-75.616;2023-08-24T08:14:43;6.63;;;1.17;;
74914;SDS011;63475;45.140;-75.616;2023-08-24T08:16:46;8.05;;;1.30;;
74914;SDS011;63475;45.140;-75.616;2023-08-24T08:18:48;4.55;;;1.73;;
74914;SDS011;63475;45.140;-75.616;2023-08-24T08:20:51;6.78;;;1.42;;
74914;SDS011;63475;45.140;-75.616;2023-08-24T08:22:54;7.40;;;1.35;;
74914;SDS011;63475;45.140;-75.616;2023-08-24T08:24:56;5.68;;;1.90;;
74914;SDS011;63475;45.140;-75.616;2023-08-24T08:26:59;9.77;;;1.83;;
74914;SDS011;63475;45.140;-75.616;2023-08-24T08:29:02;4.68;;;2.45;;
74914;SDS011;63475;45.140;-75.616;2023-08-24T08:31:04;5.78;;;2.80;;
74914;SDS011;63475;45.140;-75.616;2023-08-24T08:33:07;5.00;;;1.58;;
74914;SDS011;63475;45.140;-75.616;2023-08-24T08:35:10;4.00;;;1.42;;
74914;SDS011;63475;45.140;-75.616;2023-08-24T08:37:13;7.00;;;2.65;;
74914;SDS011;63475;45.140;-75.616;2023-08-24T08:39:15;5.72;;;2.05;;
74914;SDS011;63475;45.140;-75.616;2023-08-24T08:41:21;6.78;;;2.97;;
74914;SDS011;63475;45.140;-75.616;2023-08-24T08:43:27;6.10;;;2.63;;
74914;SDS011;63475;45.140;-75.616;2023-08-24T08:45:32;6.22;;;2.63;;
74914;SDS011;63475;45.140;-75.616;2023-08-24T08:47:34;4.80;;;1.40;;
74914;SDS011;63475;45.140;-75.616;2023-08-24T08:49:38;6.55;;;1.98;;
74914;SDS011;63475;45.140;-75.616;2023-08-24T08:51:41;5.43;;;2.08;;
74914;SDS011;63475;45.140;-75.616;2023-08-24T08:53:44;7.65;;;1.63;;
74914;SDS011;63475;45.140;-75.616;2023-08-24T08:55:47;5.57;;;1.38;;
74914;SDS011;63475;45.140;-75.616;2023-08-24T08:57:55;4.57;;;1.48;;
74914;SDS011;63475;45.140;-75.616;2023-08-24T09:00:00;5.45;;;1.50;;
74914;SDS011;63475;45.140;-75.616;2023-08-24T09:02:03;5.13;;;2.53;;
74914;SDS011;63475;45.140;-75.616;2023-08-24T09:04:07;7.95;;;1.90;;
74914;SDS011;63475;45.140;-75.616;2023-08-24T09:06:10;8.50;;;2.10;;
74914;SDS011;63475;45.140;-75.616;2023-08-24T09:08:12;5.82;;;1.75;;
74914;SDS011;63475;45.140;-75.616;2023-08-24T09:10:16;6.15;;;1.92;;
74914;SDS011;63475;45.140;-75.616;2023-08-24T09:12:19;5.20;;;2.67;;
74914;SDS011;63475;45.140;-75.616;2023-08-24T09:14:21;4.57;;;2.40;;
74914;SDS011;63475;45.140;-75.616;2023-08-24T09:16:24;4.72;;;1.65;;
74914;SDS011;63475;45.140;-75.616;2023-08-24T09:18:38;5.18;;;2.80;;
74914;SDS011;63475;45.140;-75.616;2023-08-24T09:20:42;5.80;;;2.67;;
74914;SDS011;63475;45.140;-75.616;2023-08-24T09:22:44;6.28;;;2.65;;
74914;SDS011;63475;45.140;-75.616;2023-08-24T09:24:48;5.85;;;3.03;;
74914;SDS011;63475;45.140;-75.616;2023-08-24T09:26:53;6.15;;;2.88;;
74914;SDS011;63475;45.140;-75.616;2023-08-24T09:28:56;7.85;;;3.20;;
74914;SDS011;63475;45.140;-75.616;2023-08-24T09:31:00;4.78;;;1.58;;
74914;SDS011;63475;45.140;-75.616;2023-08-24T09:33:04;5.50;;;3.00;;
74914;SDS011;63475;45.140;-75.616;2023-08-24T09:35:12;6.28;;;2.35;;
74914;SDS011;63475;45.140;-75.616;2023-08-24T09:37:15;6.15;;;1.95;;
74914;SDS011;63475;45.140;-75.616;2023-08-24T09:39:18;5.70;;;3.20;;
74914;SDS011;63475;45.140;-75.616;2023-08-24T09:41:21;7.72;;;2.75;;
74914;SDS011;63475;45.140;-75.616;2023-08-24T09:43:24;6.40;;;3.05;;
74914;SDS011;63475;45.140;-75.616;2023-08-24T09:45:27;5.80;;;2.95;;
74914;SDS011;63475;45.140;-75.616;2023-08-24T09:47:30;4.22;;;1.52;;
74914;SDS011;63475;45.140;-75.616;2023-08-24T09:49:32;5.57;;;2.22;;
74914;SDS011;63475;45.140;-75.616;2023-08-24T09:51:35;7.53;;;1.80;;
74914;SDS011;63475;45.140;-75.616;2023-08-24T09:53:38;5.60;;;2.88;;
74914;SDS011;63475;45.140;-75.616;2023-08-24T09:55:45;6.78;;;2.05;;
74914;SDS011;63475;45.140;-75.616;2023-08-24T09:57:57;6.28;;;1.95;;
74914;SDS011;63475;45.140;-75.616;2023-08-24T10:00:02;6.00;;;3.60;;
74914;SDS011;63475;45.140;-75.616;2023-08-24T10:02:15;4.85;;;1.45;;
74914;SDS011;63475;45.140;-75.616;2023-08-24T10:04:25;6.05;;;2.92;;
74914;SDS011;63475;45.140;-75.616;2023-08-24T10:06:31;7.45;;;3.15;;
74914;SDS011;63475;45.140;-75.616;2023-08-24T10:08:36;4.72;;;2.70;;
74914;SDS011;63475;45.140;-75.616;2023-08-24T10:10:39;6.25;;;2.90;;
74914;SDS011;63475;45.140;-75.616;2023-08-24T10:12:46;6.95;;;2.95;;
74914;SDS011;63475;45.140;-75.616;2023-08-24T10:15:01;6.47;;;1.67;;
74914;SDS011;63475;45.140;-75.616;2023-08-24T10:17:14;5.57;;;1.73;;
74914;SDS011;63475;45.140;-75.616;2023-08-24T10:19:18;7.55;;;2.67;;
74914;SDS011;63475;45.140;-75.616;2023-08-24T10:21:23;7.43;;;2.42;;
74914;SDS011;63475;45.140;-75.616;2023-08-24T10:23:29;5.35;;;1.60;;
74914;SDS011;63475;45.140;-75.616;2023-08-24T10:25:32;4.22;;;2.40;;
74914;SDS011;63475;45.140;-75.616;2023-08-24T10:27:35;6.15;;;1.60;;
74914;SDS011;63475;45.140;-75.616;2023-08-24T10:29:38;5.50;;;1.42;;
74914;SDS011;63475;45.140;-75.616;2023-08-24T10:31:41;4.82;;;1.95;;
74914;SDS011;63475;45.140;-75.616;2023-08-24T10:33:45;5.43;;;1.83;;
74914;SDS011;63475;45.140;-75.616;2023-08-24T10:35:48;6.75;;;1.67;;
74914;SDS011;63475;45.140;-75.616;2023-08-24T10:37:52;4.43;;;1.40;;
74914;SDS011;63475;45.140;-75.616;2023-08-24T10:39:55;5.03;;;1.67;;
74914;SDS011;63475;45.140;-75.616;2023-08-24T10:41:57;8.20;;;1.80;;
74914;SDS011;63475;45.140;-75.616;2023-08-24T10:44:06;5.80;;;3.22;;
74914;SDS011;63475;45.140;-75.616;2023-08-24T10:46:14;9.57;;;2.85;;
74914;SDS011;63475;45.140;-75.616;2023-08-24T10:48:27;6.38;;;2.70;;
74914;SDS011;63475;45.140;-75.616;2023-08-24T10:50:31;7.50;;;2.28;;
74914;SDS011;63475;45.140;-75.616;2023-08-24T10:52:35;4.28;;;2.28;;
74914;SDS011;63475;45.140;-75.616;2023-08-24T10:54:43;8.93;;;1.83;;
74914;SDS011;63475;45.140;-75.616;2023-08-24T10:56:53;5.28;;;1.30;;
74914;SDS011;63475;45.140;-75.616;2023-08-24T10:59:14;4.85;;;1.30;;
74914;SDS011;63475;45.140;-75.616;2023-08-24T11:01:18;5.47;;;1.55;;
74914;SDS011;63475;45.140;-75.616;2023-08-24T11:03:30;6.55;;;2.83;;
74914;SDS011;63475;45.140;-75.616;2023-08-24T11:05:36;5.38;;;2.17;;
74914;SDS011;63475;45.140;-75.616;2023-08-24T11:07:47;9.32;;;1.65;;
74914;SDS011;63475;45.140;-75.616;2023-08-24T11:10:00;5.32;;;2.00;;
74914;SDS011;63475;45.140;-75.616;2023-08-24T11:12:14;4.35;;;1.40;;
74914;SDS011;63475;45.140;-75.616;2023-08-24T11:14:17;6.63;;;2.78;;
74914;SDS011;63475;45.140;-75.616;2023-08-24T11:16:39;3.25;;;0.90;;
74914;SDS011;63475;45.140;-75.616;2023-08-24T11:18:45;5.15;;;1.83;;
74914;SDS011;63475;45.140;-75.616;2023-08-24T11:20:52;4.93;;;1.15;;
74914;SDS011;63475;45.140;-75.616;2023-08-24T11:23:05;4.50;;;1.17;;
74914;SDS011;63475;45.140;-75.616;2023-08-24T11:25:11;4.88;;;1.15;;
74914;SDS011;63475;45.140;-75.616;2023-08-24T11:27:15;6.63;;;1.58;;
74914;SDS011;63475;45.140;-75.616;2023-08-24T11:29:18;6.80;;;1.20;;
74914;SDS011;63475;45.140;-75.616;2023-08-24T11:31:20;3.13;;;1.33;;
74914;SDS011;63475;45.140;-75.616;2023-08-24T11:33:30;5.45;;;1.25;;
74914;SDS011;63475;45.140;-75.616;2023-08-24T11:35:35;10.73;;;2.53;;
74914;SDS011;63475;45.140;-75.616;2023-08-24T11:37:39;5.22;;;1.60;;
74914;SDS011;63475;45.140;-75.616;2023-08-24T11:39:45;5.28;;;1.20;;
74914;SDS011;63475;45.140;-75.616;2023-08-24T11:41:58;3.35;;;1.00;;
74914;SDS011;63475;45.140;-75.616;2023-08-24T11:44:02;4.80;;;1.95;;
74914;SDS011;63475;45.140;-75.616;2023-08-24T11:46:23;4.00;;;1.42;;
74914;SDS011;63475;45.140;-75.616;2023-08-24T11:48:26;4.38;;;1.30;;
74914;SDS011;63475;45.140;-75.616;2023-08-24T11:50:31;5.40;;;1.38;;
74914;SDS011;63475;45.140;-75.616;2023-08-24T11:52:39;5.07;;;2.13;;
74914;SDS011;63475;45.140;-75.616;2023-08-24T11:54:43;4.68;;;1.23;;
74914;SDS011;63475;45.140;-75.616;2023-08-24T11:56:46;4.60;;;2.00;;
74914;SDS011;63475;45.140;-75.616;2023-08-24T11:58:49;3.85;;;1.20;;
74914;SDS011;63475;45.140;-75.616;2023-08-24T12:02:57;3.42;;;0.98;;
74914;SDS011;63475;45.140;-75.616;2023-08-24T12:05:00;5.38;;;1.10;;
74914;SDS011;63475;45.140;-75.616;2023-08-24T12:07:11;4.50;;;1.08;;
74914;SDS011;63475;45.140;-75.616;2023-08-24T12:09:14;5.90;;;2.30;;
74914;SDS011;63475;45.140;-75.616;2023-08-24T12:11:17;4.35;;;0.88;;
74914;SDS011;63475;45.140;-75.616;2023-08-24T12:13:21;4.45;;;1.17;;